createdAt,value
2023-04-08T00:04:58.958Z,14.63
2023-04-08T00:10:07.609Z,14.17
2023-04-08T00:15:14.335Z,14.77
2023-04-08T00:20:19.676Z,14.77
2023-04-08T00:25:27.504Z,15.07
2023-04-08T00:30:33.213Z,15.40
2023-04-08T00:35:38.470Z,14.73
2023-04-08T00:40:46.389Z,16.10
2023-04-08T00:45:51.995Z,15.83
2023-04-08T00:50:57.160Z,16.23
2023-04-08T00:56:04.955Z,16.00
2023-04-08T01:01:19.531Z,17.17
2023-04-08T01:06:34.200Z,15.53
2023-04-08T01:11:46.572Z,14.33
2023-04-08T01:16:53.593Z,13.77
2023-04-08T01:22:06.870Z,14.20
2023-04-08T01:27:16.974Z,13.27
2023-04-08T01:32:22.836Z,13.90
2023-04-08T01:37:31.253Z,13.27
2023-04-08T01:42:41.156Z,12.30
2023-04-08T01:47:50.223Z,11.43
2023-04-08T01:52:58.372Z,11.73
2023-04-08T01:58:08.549Z,10.43
2023-04-08T02:03:16.177Z,9.83
2023-04-08T02:08:25.458Z,9.47
2023-04-08T02:13:36.125Z,8.87
2023-04-08T02:18:46.622Z,8.23
2023-04-08T02:23:54.052Z,9.20
2023-04-08T02:29:03.688Z,8.60
2023-04-08T02:34:10.621Z,8.20
2023-04-08T02:39:15.797Z,8.80
2023-04-08T02:44:27.063Z,7.60
2023-04-08T02:49:32.629Z,7.53
2023-04-08T02:54:37.834Z,6.70
2023-04-08T02:59:45.561Z,7.23
2023-04-08T03:04:50.830Z,6.07
2023-04-08T03:09:56.641Z,6.00
2023-04-08T03:15:04.676Z,5.77
2023-04-08T03:20:11.319Z,5.60
2023-04-08T03:25:16.441Z,5.87
2023-04-08T03:30:27.069Z,6.47
2023-04-08T03:35:33.147Z,5.67
2023-04-08T03:40:38.234Z,5.63
2023-04-08T03:45:49.002Z,6.00
2023-04-08T03:50:54.254Z,5.17
2023-04-08T03:56:00.789Z,5.33
2023-04-08T04:01:08.629Z,5.77
2023-04-08T04:06:13.801Z,5.63
2023-04-08T04:11:19.041Z,6.67
2023-04-08T04:16:26.903Z,6.40
2023-04-08T04:21:32.069Z,6.33
2023-04-08T04:26:37.154Z,5.83
2023-04-08T04:31:47.261Z,6.43
2023-04-08T04:36:52.338Z,5.67
2023-04-08T04:41:57.592Z,5.87
2023-04-08T04:47:07.561Z,6.10
2023-04-08T04:52:12.945Z,5.53
2023-04-08T04:57:17.991Z,5.70
2023-04-08T05:02:25.895Z,5.47
2023-04-08T05:07:31.201Z,5.73
2023-04-08T05:12:38.017Z,5.63
2023-04-08T05:17:46.020Z,5.10
2023-04-08T05:22:52.363Z,6.13
2023-04-08T05:27:57.761Z,5.20
2023-04-08T05:33:05.559Z,5.63
2023-04-08T05:38:10.904Z,5.53
2023-04-08T05:43:16.354Z,5.73
2023-04-08T05:48:24.029Z,5.70
2023-04-08T05:53:29.216Z,5.67
2023-04-08T05:58:36.468Z,6.03
2023-04-08T06:03:44.666Z,6.33
2023-04-08T06:08:50.278Z,7.70
2023-04-08T06:13:55.527Z,8.97
2023-04-08T06:19:03.221Z,11.10
2023-04-08T06:24:11.110Z,11.57
2023-04-08T06:29:16.275Z,14.23
2023-04-08T06:34:23.917Z,15.33
2023-04-08T06:39:29.341Z,15.43
2023-04-08T06:44:34.756Z,17.37
2023-04-08T06:49:42.818Z,16.97
2023-04-08T06:54:47.909Z,17.47
2023-04-08T06:59:53.701Z,15.63
2023-04-08T07:05:01.738Z,15.13
2023-04-08T07:10:09.703Z,13.80
2023-04-08T07:15:16.050Z,12.37
2023-04-08T07:20:23.862Z,10.67
2023-04-08T07:25:31.561Z,10.07
2023-04-08T07:30:36.946Z,9.80
2023-04-08T07:35:44.698Z,8.67
2023-04-08T07:40:49.838Z,8.03
2023-04-08T07:45:57.523Z,7.03
2023-04-08T07:51:09.899Z,7.83
2023-04-08T07:56:18.562Z,7.53
2023-04-08T08:01:31.679Z,7.70
2023-04-08T08:06:39.740Z,8.57
2023-04-08T08:11:46.366Z,8.13
2023-04-08T08:16:53.083Z,9.20
2023-04-08T08:22:04.404Z,9.60
2023-04-08T08:27:09.747Z,10.10
2023-04-08T08:32:15.911Z,10.37
2023-04-08T08:37:23.773Z,10.83
2023-04-08T08:42:29.712Z,10.90
2023-04-08T08:47:35.210Z,11.83
2023-04-08T08:52:45.679Z,12.90
2023-04-08T08:57:53.834Z,10.67
2023-04-08T09:02:59.347Z,11.13
2023-04-08T09:08:23.140Z,10.10
2023-04-08T09:13:39.808Z,11.10
2023-04-08T09:18:51.017Z,10.97
2023-04-08T09:24:01.784Z,11.00
2023-04-08T09:29:18.407Z,11.77
2023-04-08T09:34:34.614Z,11.67
2023-04-08T09:39:52.630Z,11.60
2023-04-08T09:45:00.396Z,11.50
2023-04-08T09:50:10.128Z,11.97
2023-04-08T09:55:24.952Z,11.40
2023-04-08T10:00:36.341Z,10.50
2023-04-08T10:05:45.153Z,11.13
2023-04-08T10:10:54.489Z,9.97
2023-04-08T10:16:26.343Z,9.70
2023-04-08T10:21:39.101Z,12.03
2023-04-08T10:26:49.330Z,9.47
2023-04-08T10:31:54.750Z,9.90
2023-04-08T10:37:04.512Z,11.47
2023-04-08T10:42:12.535Z,11.40
2023-04-08T10:47:17.674Z,11.60
2023-04-08T10:52:27.728Z,12.20
2023-04-08T10:57:37.820Z,12.17
2023-04-08T11:02:44.557Z,12.60
2023-04-08T11:07:49.889Z,13.23
2023-04-08T11:13:00.850Z,13.73
2023-04-08T11:18:06.143Z,14.60
2023-04-08T11:23:16.689Z,16.17
2023-04-08T11:28:25.550Z,15.77
2023-04-08T11:33:30.759Z,17.20
2023-04-08T11:38:36.371Z,15.73
2023-04-08T11:43:55.387Z,19.47
2023-04-08T11:49:02.608Z,18.97
2023-04-08T11:54:09.740Z,19.37
2023-04-08T11:59:17.538Z,17.40
2023-04-08T12:04:22.917Z,19.00
2023-04-08T12:09:34.141Z,18.97
2023-04-08T12:14:43.028Z,18.20
2023-04-08T12:20:08.138Z,16.63
2023-04-08T12:25:13.433Z,16.20
2023-04-08T12:30:22.637Z,15.70
2023-04-08T12:35:27.813Z,14.73
2023-04-08T12:40:33.012Z,14.83
2023-04-08T12:45:43.076Z,17.00
2023-04-08T12:50:48.215Z,17.13
2023-04-08T12:55:57.391Z,16.43
2023-04-08T13:01:05.260Z,16.53
2023-04-08T13:06:13.710Z,15.90
2023-04-08T13:11:21.948Z,17.40
2023-04-08T13:16:29.968Z,16.67
2023-04-08T13:21:35.115Z,16.57
2023-04-08T13:26:40.710Z,15.47
2023-04-08T13:31:48.562Z,16.17
2023-04-08T13:36:53.699Z,15.50
2023-04-08T13:41:58.923Z,14.30
2023-04-08T13:47:09.390Z,15.13
2023-04-08T13:52:14.506Z,16.23
2023-04-08T13:57:19.639Z,16.00
2023-04-08T14:02:30.867Z,15.40
2023-04-08T14:07:36.148Z,15.60
2023-04-08T14:12:43.066Z,15.17
2023-04-08T14:17:51.316Z,15.00
2023-04-08T14:23:02.790Z,14.63
2023-04-08T14:28:08.323Z,14.03
2023-04-08T14:33:16.113Z,14.50
2023-04-08T14:38:21.664Z,14.90
2023-04-08T14:43:26.872Z,15.37
2023-04-08T14:48:36.296Z,15.60
2023-04-08T14:53:42.549Z,15.53
2023-04-08T14:58:51.483Z,15.27
2023-04-08T15:04:02.345Z,16.40
2023-04-08T15:09:07.772Z,16.97
2023-04-08T15:14:14.818Z,16.07
2023-04-08T15:19:23.916Z,15.87
2023-04-08T15:24:29.108Z,16.93
2023-04-08T15:29:34.400Z,14.70
2023-04-08T15:34:42.187Z,17.37
2023-04-08T15:39:49.025Z,16.33
2023-04-08T15:44:55.787Z,16.63
2023-04-08T15:50:04.209Z,15.83
2023-04-08T15:55:12.049Z,16.07
2023-04-08T16:00:20.444Z,16.57
2023-04-08T16:05:31.363Z,15.73
2023-04-08T16:10:37.660Z,16.87
2023-04-08T16:15:47.296Z,15.33
2023-04-08T16:20:55.315Z,16.20
2023-04-08T16:26:03.456Z,16.10
2023-04-08T16:31:08.897Z,16.07
2023-04-08T16:36:19.693Z,17.07
2023-04-08T16:41:28.531Z,18.27
2023-04-08T16:46:36.484Z,18.13
2023-04-08T16:51:44.870Z,17.13
2023-04-08T16:56:50.061Z,17.50
2023-04-08T17:01:57.980Z,19.17
2023-04-08T17:07:06.828Z,19.50
2023-04-08T17:12:13.127Z,19.43
2023-04-08T17:17:20.376Z,18.07
2023-04-08T17:22:28.245Z,17.80
2023-04-08T17:27:33.828Z,18.27
2023-04-08T17:32:46.285Z,17.53
2023-04-08T17:37:54.839Z,18.27
2023-04-08T17:43:00.201Z,18.00
2023-04-08T17:48:09.274Z,18.37
2023-04-08T17:53:17.423Z,17.63
2023-04-08T17:58:24.753Z,16.87
2023-04-08T18:03:30.233Z,16.63
2023-04-08T18:08:38.476Z,17.33
2023-04-08T18:13:43.652Z,17.43
2023-04-08T18:18:51.885Z,21.43
2023-04-08T18:23:59.953Z,22.67
2023-04-08T18:29:05.752Z,22.03
2023-04-08T18:34:12.650Z,20.43
2023-04-08T18:39:21.256Z,21.43
2023-04-08T18:44:26.673Z,20.87
2023-04-08T18:49:34.147Z,21.37
2023-04-08T18:54:42.777Z,22.00
2023-04-08T18:59:54.136Z,24.33
2023-04-08T19:04:59.718Z,23.90
2023-04-08T19:10:08.900Z,23.07
2023-04-08T19:15:15.997Z,21.00
2023-04-08T19:20:21.955Z,22.17
2023-04-08T19:25:32.305Z,23.20
2023-04-08T19:30:39.689Z,23.97
2023-04-08T19:35:48.367Z,23.13
2023-04-08T19:40:56.491Z,23.30
2023-04-08T19:46:02.737Z,24.50
2023-04-08T19:51:08.133Z,23.03
2023-04-08T19:56:17.632Z,25.07
2023-04-08T20:01:24.681Z,30.00
2023-04-08T20:06:31.037Z,33.20
2023-04-08T20:11:42.548Z,26.90
2023-04-08T20:16:49.415Z,27.83
2023-04-08T20:22:07.862Z,26.43
2023-04-08T20:27:17.190Z,28.00
2023-04-08T20:32:23.429Z,27.73
2023-04-08T20:37:30.319Z,26.30
2023-04-08T20:42:40.940Z,25.37
2023-04-08T20:47:47.211Z,25.50
2023-04-08T20:52:56.482Z,26.63
2023-04-08T20:58:08.361Z,25.73
2023-04-08T21:03:14.060Z,29.77
2023-04-08T21:08:20.330Z,28.53
2023-04-08T21:13:31.587Z,34.40
2023-04-08T21:18:37.501Z,33.90
2023-04-08T21:23:42.792Z,35.43
2023-04-08T21:28:51.253Z,32.77
2023-04-08T21:33:57.780Z,33.27
2023-04-08T21:39:07.297Z,40.07
2023-04-08T21:44:15.747Z,42.90
2023-04-08T21:49:23.357Z,40.77
2023-04-08T21:54:33.366Z,33.77
2023-04-08T21:59:41.709Z,36.13
2023-04-08T22:04:47.300Z,29.03
2023-04-08T22:09:54.737Z,29.67
2023-04-08T22:15:03.346Z,30.70
2023-04-08T22:20:12.662Z,29.83
2023-04-08T22:25:18.244Z,26.57
2023-04-08T22:30:27.230Z,25.63
2023-04-08T22:35:32.614Z,29.60
2023-04-08T22:40:41.950Z,29.53
2023-04-08T22:45:50.155Z,32.27
2023-04-08T22:50:57.935Z,28.43
2023-04-08T22:56:03.399Z,30.77
2023-04-08T23:01:17.725Z,29.40
2023-04-08T23:06:26.467Z,30.00
2023-04-08T23:11:31.774Z,31.50
2023-04-08T23:16:40.102Z,28.03
2023-04-08T23:21:47.730Z,26.87
2023-04-08T23:26:53.753Z,26.13
2023-04-08T23:32:02.481Z,23.80
2023-04-08T23:37:07.778Z,23.37
2023-04-08T23:42:13.075Z,22.77
2023-04-08T23:47:23.123Z,20.00
2023-04-08T23:52:31.210Z,20.63
2023-04-08T23:57:39.431Z,19.87
